Time,TemperatureF,DewpointF,PressureIn,WindDirection,WindDirectionDegrees,WindSpeedMPH,WindSpeedGustMPH,Humidity,HourlyPrecipIn,Conditions,Clouds,dailyrainin,SolarRadiationWatts/m^2,SoftwareType,DateUTC
2013-03-10 00:02:00,54.3,52.6,29.74,SE,131,7.0,7.0,94,0.00,CLR,FEW,0.00,0.0,WeatherDisplay:10.37,2013-03-09 23:02:00,
2013-03-10 00:07:00,54.1,52.4,29.74,SE,135,9.2,9.2,94,0.00,CLR,FEW,0.00,0.0,WeatherDisplay:10.37,2013-03-09 23:07:00,
2013-03-10 00:12:00,54.1,52.4,29.74,SE,139,7.0,7.0,94,0.00,CLR,FEW,0.00,0.0,WeatherDisplay:10.37,2013-03-09 23:12:00,
2013-03-10 00:17:00,54.1,52.4,29.74,SE,146,9.2,9.2,94,0.00,CLR,FEW,0.00,0.0,WeatherDisplay:10.37,2013-03-09 23:17:00,
2013-03-10 00:22:00,54.1,52.4,29.74,South,175,8.1,8.1,94,0.00,CLR,FEW,0.00,0.0,WeatherDisplay:10.37,2013-03-09 23:22:00,
2013-03-10 00:27:00,54.1,52.4,29.74,SE,136,9.2,9.2,94,0.00,CLR,FEW,0.00,0.0,WeatherDisplay:10.37,2013-03-09 23:27:00,
2013-03-10 00:32:00,54.1,52.4,29.74,SSE,150,5.8,5.8,94,0.00,CLR,FEW,0.00,0.0,WeatherDisplay:10.37,2013-03-09 23:32:00,
2013-03-10 00:37:00,54.1,52.4,29.74,East,101,6.9,6.9,94,0.00,CLR,FEW,0.00,0.0,WeatherDisplay:10.37,2013-03-09 23:37:00,
2013-03-10 00:42:00,54.1,52.4,29.74,ESE,113,5.8,5.8,94,0.00,CLR,FEW,0.00,0.0,WeatherDisplay:10.37,2013-03-09 23:42:00,
2013-03-10 00:47:00,54.0,52.3,29.74,SE,145,9.0,9.0,94,0.00,CLR,FEW,0.00,0.0,WeatherDisplay:10.37,2013-03-09 23:47:00,
2013-03-10 00:52:00,54.1,52.4,29.74,SSE,165,6.9,6.9,94,0.00,CLR,FEW,0.00,0.0,WeatherDisplay:10.37,2013-03-09 23:52:00,
2013-03-10 00:57:00,54.2,52.5,29.74,SE,140,8.1,8.1,94,0.00,CLR,FEW,0.00,0.0,WeatherDisplay:10.37,2013-03-09 23:57:00,
2013-03-10 01:02:00,54.2,52.5,29.74,SE,140,8.1,8.1,94,0.00,CLR,FEW,0.00,0.0,WeatherDisplay:10.37,2013-03-10 00:02:00,
2013-03-10 01:07:00,54.2,52.5,29.74,South,170,6.9,6.9,94,0.00,CLR,FEW,0.00,0.0,WeatherDisplay:10.37,2013-03-10 00:07:00,
2013-03-10 01:12:00,54.2,52.5,29.74,WNW,295,4.6,4.6,94,0.00,CLR,FEW,0.00,0.0,WeatherDisplay:10.37,2013-03-10 00:12:00,
2013-03-10 01:17:00,54.4,52.7,29.74,SE,126,6.9,6.9,94,0.00,CLR,FEW,0.00,0.0,WeatherDisplay:10.37,2013-03-10 00:17:00,
2013-03-10 01:22:00,54.5,53.1,29.74,SW,221,6.9,6.9,95,0.00,CLR,FEW,0.00,0.0,WeatherDisplay:10.37,2013-03-10 00:22:00,
2013-03-10 01:27:00,54.6,53.2,29.74,ESE,113,5.8,5.8,95,0.00,CLR,FEW,0.00,0.0,WeatherDisplay:10.37,2013-03-10 00:27:00,
2013-03-10 01:32:00,54.6,53.2,29.74,SE,125,8.0,8.0,95,0.00,CLR,FEW,0.00,0.0,WeatherDisplay:10.37,2013-03-10 00:32:00,
2013-03-10 01:37:00,54.7,53.3,29.74,ESE,119,8.1,8.1,95,0.00,CLR,FEW,0.00,0.0,WeatherDisplay:10.37,2013-03-10 00:37:00,
2013-03-10 01:42:00,54.7,53.3,29.74,SE,131,8.1,8.1,95,0.00,CLR,FEW,0.00,0.0,WeatherDisplay:10.37,2013-03-10 00:42:00,
2013-03-10 01:47:00,54.7,53.3,29.74,South,180,10.4,10.4,95,0.00,CLR,FEW,0.00,0.0,WeatherDisplay:10.37,2013-03-10 00:47:00,
2013-03-10 01:52:00,54.6,53.2,29.74,SSE,147,12.7,12.7,95,0.00,CLR,FEW,0.00,0.0,WeatherDisplay:10.37,2013-03-10 00:52:00,
2013-03-10 01:57:00,54.5,53.1,29.74,South,172,11.5,11.5,95,0.00,CLR,FEW,0.00,0.0,WeatherDisplay:10.37,2013-03-10 00:57:00,
2013-03-10 02:02:00,54.4,53.0,29.74,South,174,13.8,13.8,95,0.00,CLR,FEW,0.00,0.0,WeatherDisplay:10.37,2013-03-10 01:02:00,
2013-03-10 02:07:00,54.5,53.1,29.73,SE,139,8.1,8.1,95,0.00,CLR,FEW,0.00,0.0,WeatherDisplay:10.37,2013-03-10 01:07:00,
2013-03-10 02:12:00,54.6,53.2,29.73,ESE,107,13.8,13.8,95,0.00,CLR,FEW,0.00,0.0,WeatherDisplay:10.37,2013-03-10 01:12:00,
2013-03-10 02:17:00,54.7,53.3,29.73,SSE,154,12.7,12.7,95,0.00,CLR,FEW,0.00,0.0,WeatherDisplay:10.37,2013-03-10 01:17:00,
2013-03-10 02:22:00,54.6,53.2,29.73,SSE,151,15.0,15.0,95,0.00,CLR,FEW,0.00,0.0,WeatherDisplay:10.37,2013-03-10 01:22:00,
2013-03-10 02:27:00,54.5,53.1,29.73,SE,129,11.5,11.5,95,0.00,CLR,FEW,0.00,0.0,WeatherDisplay:10.37,2013-03-10 01:27:00,
2013-03-10 02:32:00,54.5,53.1,29.74,South,172,10.4,10.4,95,0.00,CLR,FEW,0.00,0.0,WeatherDisplay:10.37,2013-03-10 01:32:00,
2013-03-10 02:37:00,54.2,52.8,29.74,South,180,15.0,15.0,95,0.00,CLR,FEW,0.00,0.0,WeatherDisplay:10.37,2013-03-10 01:37:00,
2013-03-10 02:42:00,54.1,52.7,29.74,SE,145,11.5,11.5,95,0.00,CLR,FEW,0.00,0.0,WeatherDisplay:10.37,2013-03-10 01:42:00,
2013-03-10 02:47:00,54.0,52.6,29.73,SE,137,12.7,12.7,95,0.00,CLR,FEW,0.00,0.0,WeatherDisplay:10.37,2013-03-10 01:47:00,
2013-03-10 02:52:00,53.9,52.5,29.73,SE,132,7.0,7.0,95,0.00,CLR,FEW,0.00,0.0,WeatherDisplay:10.37,2013-03-10 01:52:00,
2013-03-10 02:57:00,53.9,52.5,29.73,South,186,9.2,9.2,95,0.00,CLR,FEW,0.00,0.0,WeatherDisplay:10.37,2013-03-10 01:57:00,
2013-03-10 03:02:00,54.0,52.6,29.73,SSE,157,12.7,12.7,95,0.00,CLR,FEW,0.00,0.0,WeatherDisplay:10.37,2013-03-10 02:02:00,
2013-03-10 03:07:00,54.0,52.6,29.73,SSE,159,11.5,11.5,95,0.00,CLR,FEW,0.00,0.0,WeatherDisplay:10.37,2013-03-10 02:07:00,
2013-03-10 03:12:00,54.0,52.6,29.73,SSE,155,6.9,6.9,95,0.00,CLR,FEW,0.00,0.0,WeatherDisplay:10.37,2013-03-10 02:12:00,
2013-03-10 03:17:00,53.9,52.5,29.73,SSE,156,4.6,4.6,95,0.00,CLR,FEW,0.00,0.0,WeatherDisplay:10.37,2013-03-10 02:17:00,
2013-03-10 03:22:00,53.8,52.4,29.74,SSE,156,1.2,0.0,95,0.00,CLR,FEW,0.00,0.0,WeatherDisplay:10.37,2013-03-10 02:22:00,
2013-03-10 03:27:00,53.7,52.3,29.73,SW,236,1.2,1.4,95,0.00,CLR,FEW,0.00,0.0,WeatherDisplay:10.37,2013-03-10 02:27:00,
2013-03-10 03:32:00,53.6,52.2,29.74,SW,234,2.3,2.3,95,0.00,CLR,FEW,0.00,0.0,WeatherDisplay:10.37,2013-03-10 02:32:00,
2013-03-10 03:37:00,53.6,52.2,29.74,SE,130,4.0,4.0,95,0.00,CLR,FEW,0.00,0.0,WeatherDisplay:10.37,2013-03-10 02:37:00,
2013-03-10 03:42:00,53.6,52.2,29.73,SW,215,3.5,3.5,95,0.00,CLR,FEW,0.00,0.0,WeatherDisplay:10.37,2013-03-10 02:42:00,
2013-03-10 03:47:00,53.6,52.2,29.74,SSW,212,3.5,3.5,95,0.00,CLR,FEW,0.00,0.0,WeatherDisplay:10.37,2013-03-10 02:47:00,
2013-03-10 03:52:00,53.6,52.2,29.74,SSW,212,3.5,3.5,95,0.00,CLR,FEW,0.00,0.0,WeatherDisplay:10.37,2013-03-10 02:52:00,
2013-03-10 03:57:00,53.7,52.3,29.74,SSW,212,1.2,1.2,95,0.00,CLR,FEW,0.00,0.0,WeatherDisplay:10.37,2013-03-10 02:57:00,
2013-03-10 04:02:00,53.7,52.3,29.74,SSW,212,1.2,0.0,95,0.00,CLR,FEW,0.00,0.0,WeatherDisplay:10.37,2013-03-10 03:02:00,
2013-03-10 04:07:00,53.7,52.3,29.74,ESE,113,5.0,5.0,95,0.00,CLR,FEW,0.00,0.0,WeatherDisplay:10.37,2013-03-10 03:07:00,
2013-03-10 04:12:00,53.7,52.3,29.74,ESE,113,3.5,3.5,95,0.00,CLR,FEW,0.00,0.0,WeatherDisplay:10.37,2013-03-10 03:12:00,
2013-03-10 04:17:00,53.7,52.3,29.74,ESE,113,2.3,2.3,95,0.00,CLR,FEW,0.00,0.0,WeatherDisplay:10.37,2013-03-10 03:17:00,
2013-03-10 04:22:00,53.6,52.2,29.74,ESE,113,2.3,2.3,95,0.00,CLR,FEW,0.00,0.0,WeatherDisplay:10.37,2013-03-10 03:22:00,
2013-03-10 04:27:00,53.6,52.2,29.73,ESE,113,0.0,0.0,95,0.00,CLR,FEW,0.00,0.0,WeatherDisplay:10.37,2013-03-10 03:27:00,
2013-03-10 04:32:00,53.6,52.2,29.74,ESE,113,1.2,1.2,95,0.00,CLR,FEW,0.00,0.0,WeatherDisplay:10.37,2013-03-10 03:32:00,
2013-03-10 04:37:00,53.6,52.2,29.74,ESE,113,2.3,2.3,95,0.00,CLR,FEW,0.00,0.0,WeatherDisplay:10.37,2013-03-10 03:37:00,
2013-03-10 04:42:00,53.6,52.2,29.74,WSW,245,4.6,4.6,95,0.00,CLR,FEW,0.00,0.0,WeatherDisplay:10.37,2013-03-10 03:42:00,
2013-03-10 04:47:00,53.6,52.2,29.74,WSW,245,2.3,2.3,95,0.00,CLR,FEW,0.00,0.0,WeatherDisplay:10.37,2013-03-10 03:47:00,
2013-03-10 04:52:00,53.7,52.3,29.74,WSW,245,3.5,3.5,95,0.00,CLR,FEW,0.00,0.0,WeatherDisplay:10.37,2013-03-10 03:52:00,
2013-03-10 04:57:00,53.7,52.3,29.74,WSW,245,3.5,3.5,95,0.00,CLR,FEW,0.00,0.0,WeatherDisplay:10.37,2013-03-10 03:57:00,
2013-03-10 05:02:00,53.7,52.3,29.74,WSW,245,5.0,5.0,95,0.00,CLR,FEW,0.00,0.0,WeatherDisplay:10.37,2013-03-10 04:02:00,
2013-03-10 05:07:00,53.7,52.3,29.74,WSW,245,3.5,3.5,95,0.00,CLR,FEW,0.00,0.0,WeatherDisplay:10.37,2013-03-10 04:07:00,
2013-03-10 05:12:00,53.6,52.2,29.74,WSW,245,1.2,1.2,95,0.00,CLR,FEW,0.00,0.0,WeatherDisplay:10.37,2013-03-10 04:12:00,
2013-03-10 05:17:00,53.4,52.0,29.74,WSW,245,2.3,2.3,95,0.00,CLR,FEW,0.00,0.0,WeatherDisplay:10.37,2013-03-10 04:17:00,
2013-03-10 05:22:00,53.3,51.9,29.74,WSW,244,3.5,3.5,95,0.00,CLR,FEW,0.00,0.0,WeatherDisplay:10.37,2013-03-10 04:22:00,
2013-03-10 05:27:00,53.2,51.8,29.74,WSW,244,2.3,2.3,95,0.00,CLR,FEW,0.00,0.0,WeatherDisplay:10.37,2013-03-10 04:27:00,
2013-03-10 05:32:00,53.2,51.8,29.74,WSW,244,2.3,2.3,95,0.00,CLR,FEW,0.00,0.0,WeatherDisplay:10.37,2013-03-10 04:32:00,
2013-03-10 05:37:00,53.3,51.9,29.74,WSW,244,1.2,1.2,95,0.00,CLR,FEW,0.00,0.0,WeatherDisplay:10.37,2013-03-10 04:37:00,
2013-03-10 05:42:00,53.3,51.9,29.74,WSW,244,3.5,3.5,95,0.00,CLR,FEW,0.00,0.0,WeatherDisplay:10.37,2013-03-10 04:42:00,
2013-03-10 05:47:00,53.4,52.0,29.74,WSW,244,2.3,2.3,95,0.00,CLR,FEW,0.00,0.0,WeatherDisplay:10.37,2013-03-10 04:47:00,
2013-03-10 05:52:00,53.5,52.1,29.74,WSW,244,3.5,3.5,95,0.00,CLR,FEW,0.00,0.0,WeatherDisplay:10.37,2013-03-10 04:52:00,
2013-03-10 05:57:00,53.6,52.2,29.74,WSW,244,1.2,1.2,95,0.00,CLR,FEW,0.00,0.0,WeatherDisplay:10.37,2013-03-10 04:57:00,
2013-03-10 06:00:00,53.6,52.2,29.74,WSW,244,2.3,2.3,95,0.00,CLR,FEW,0.00,0.0,WeatherDisplay:10.37,2013-03-10 05:00:00,
2013-03-10 06:01:00,53.6,52.2,29.74,WSW,244,2.0,0.0,95,0.00,OVC,FEW,0.00,0.0,WeatherDisplay:10.37,2013-03-10 05:01:00,
2013-03-10 06:06:00,53.6,52.2,29.74,WSW,244,2.3,2.3,95,0.00,OVC,FEW,0.00,0.0,WeatherDisplay:10.37,2013-03-10 05:06:00,
2013-03-10 06:11:00,53.5,52.1,29.74,WSW,244,3.5,3.5,95,0.00,OVC,FEW,0.00,0.0,WeatherDisplay:10.37,2013-03-10 05:11:00,
2013-03-10 06:16:00,53.4,52.0,29.74,WSW,244,3.5,3.5,95,0.00,OVC,FEW,0.00,0.0,WeatherDisplay:10.37,2013-03-10 05:16:00,
2013-03-10 06:21:00,53.2,51.8,29.73,WSW,244,4.0,4.0,95,0.00,OVC,FEW,0.00,0.0,WeatherDisplay:10.37,2013-03-10 05:21:00,
2013-03-10 06:26:00,53.1,51.7,29.73,WSW,244,3.5,3.5,95,0.00,OVC,FEW,0.00,0.0,WeatherDisplay:10.37,2013-03-10 05:26:00,
2013-03-10 06:31:00,52.8,51.4,29.73,WSW,244,3.0,3.0,95,0.00,OVC,FEW,0.00,0.0,WeatherDisplay:10.37,2013-03-10 05:31:00,
2013-03-10 06:36:00,52.6,51.2,29.73,WSW,244,3.5,3.5,95,0.00,OVC,FEW,0.00,0.0,WeatherDisplay:10.37,2013-03-10 05:36:00,
2013-03-10 06:41:00,52.4,51.0,29.73,WSW,244,3.5,3.5,95,0.00,OVC,FEW,0.00,0.0,WeatherDisplay:10.37,2013-03-10 05:41:00,
2013-03-10 06:46:00,52.4,51.0,29.74,South,175,4.6,4.6,95,0.00,OVC,FEW,0.00,0.0,WeatherDisplay:10.37,2013-03-10 05:46:00,
2013-03-10 06:51:00,52.4,51.0,29.74,South,180,4.6,4.6,95,0.00,OVC,FEW,0.00,0.0,WeatherDisplay:10.37,2013-03-10 05:51:00,
2013-03-10 06:56:00,52.3,50.9,29.74,South,182,3.5,3.5,95,0.00,OVC,FEW,0.00,0.0,WeatherDisplay:10.37,2013-03-10 05:56:00,
2013-03-10 07:01:00,52.3,50.9,29.74,South,182,4.0,4.0,95,0.00,OVC,FEW,0.00,0.0,WeatherDisplay:10.37,2013-03-10 06:01:00,
2013-03-10 07:06:00,52.2,50.9,29.74,South,182,3.5,3.5,95,0.00,OVC,FEW,0.00,0.0,WeatherDisplay:10.37,2013-03-10 06:06:00,
2013-03-10 07:11:00,52.3,50.9,29.75,South,182,3.5,3.5,95,0.00,OVC,FEW,0.00,0.0,WeatherDisplay:10.37,2013-03-10 06:11:00,
2013-03-10 07:16:00,52.3,50.9,29.75,South,182,3.5,3.5,95,0.00,OVC,FEW,0.00,0.0,WeatherDisplay:10.37,2013-03-10 06:16:00,
2013-03-10 07:21:00,52.4,51.0,29.75,South,182,3.5,3.5,95,0.00,OVC,FEW,0.00,0.0,WeatherDisplay:10.37,2013-03-10 06:21:00,
2013-03-10 07:26:00,52.5,51.1,29.75,South,182,3.5,3.5,95,0.00,OVC,FEW,0.00,0.0,WeatherDisplay:10.37,2013-03-10 06:26:00,
2013-03-10 07:31:00,52.5,51.1,29.75,South,182,3.5,3.5,95,0.00,OVC,FEW,0.00,0.0,WeatherDisplay:10.37,2013-03-10 06:31:00,
2013-03-10 07:36:00,52.7,51.3,29.74,South,182,3.5,3.5,95,0.00,OVC,FEW,0.00,0.0,WeatherDisplay:10.37,2013-03-10 06:36:00,
2013-03-10 07:41:00,52.9,51.5,29.74,South,182,2.3,2.3,95,0.00,OVC,FEW,0.00,0.0,WeatherDisplay:10.37,2013-03-10 06:41:00,
2013-03-10 07:46:00,53.1,51.7,29.75,South,182,0.0,0.0,95,0.00,OVC,FEW,0.00,0.0,WeatherDisplay:10.37,2013-03-10 06:46:00,
2013-03-10 07:51:00,53.3,51.9,29.75,South,182,0.0,0.0,95,0.00,OVC,FEW,0.00,0.0,WeatherDisplay:10.37,2013-03-10 06:51:00,
2013-03-10 07:56:00,53.7,52.3,29.75,South,182,0.0,0.0,95,0.00,OVC,FEW,0.00,0.0,WeatherDisplay:10.37,2013-03-10 06:56:00,
2013-03-10 08:01:00,53.9,52.5,29.75,South,182,0.0,0.0,95,0.00,OVC,FEW,0.00,0.0,WeatherDisplay:10.37,2013-03-10 07:01:00,
2013-03-10 08:06:00,54.3,52.6,29.75,South,182,2.0,2.0,94,0.00,OVC,FEW,0.00,0.0,WeatherDisplay:10.37,2013-03-10 07:06:00,
2013-03-10 08:11:00,54.3,52.6,29.75,South,182,3.5,3.5,94,0.00,OVC,FEW,0.00,0.0,WeatherDisplay:10.37,2013-03-10 07:11:00,
2013-03-10 08:16:00,54.3,52.6,29.75,South,182,1.2,0.0,94,0.00,OVC,FEW,0.00,0.0,WeatherDisplay:10.37,2013-03-10 07:16:00,
2013-03-10 08:21:00,54.6,52.9,29.75,South,182,1.2,1.2,94,0.00,OVC,FEW,0.00,0.0,WeatherDisplay:10.37,2013-03-10 07:21:00,
2013-03-10 08:26:00,55.0,53.3,29.75,South,182,0.0,0.0,94,0.00,OVC,FEW,0.00,0.0,WeatherDisplay:10.37,2013-03-10 07:26:00,
2013-03-10 08:31:00,55.6,53.6,29.75,South,182,0.0,0.0,93,0.00,OVC,FEW,0.00,0.0,WeatherDisplay:10.37,2013-03-10 07:31:00,
2013-03-10 08:36:00,55.9,53.9,29.75,South,182,0.0,0.0,93,0.00,OVC,FEW,0.00,0.0,WeatherDisplay:10.37,2013-03-10 07:36:00,
2013-03-10 08:41:00,56.4,54.1,29.75,South,182,1.2,1.2,92,0.00,OVC,FEW,0.00,0.0,WeatherDisplay:10.37,2013-03-10 07:41:00,
2013-03-10 08:46:00,56.8,54.2,29.75,South,182,1.2,0.0,91,0.00,OVC,FEW,0.00,0.0,WeatherDisplay:10.37,2013-03-10 07:46:00,
2013-03-10 08:51:00,56.9,54.0,29.75,South,182,1.2,1.2,90,0.00,OVC,FEW,0.00,0.0,WeatherDisplay:10.37,2013-03-10 07:51:00,
2013-03-10 08:56:00,57.3,54.4,29.75,South,182,0.0,0.0,90,0.00,OVC,FEW,0.00,0.0,WeatherDisplay:10.37,2013-03-10 07:56:00,
2013-03-10 09:01:00,57.7,54.2,29.75,South,182,3.5,3.5,88,0.00,OVC,FEW,0.00,0.0,WeatherDisplay:10.37,2013-03-10 08:01:00,
2013-03-10 09:06:00,57.9,54.1,29.76,SW,236,3.5,3.5,87,0.00,OVC,FEW,0.00,0.0,WeatherDisplay:10.37,2013-03-10 08:06:00,
2013-03-10 09:11:00,57.8,53.6,29.76,SW,235,2.0,5.0,86,0.00,OVC,FEW,0.00,0.0,WeatherDisplay:10.37,2013-03-10 08:11:00,
2013-03-10 09:16:00,57.9,53.7,29.76,WSW,247,5.0,5.0,86,0.00,OVC,FEW,0.00,0.0,WeatherDisplay:10.37,2013-03-10 08:16:00,
2013-03-10 09:21:00,58.0,53.5,29.76,WSW,252,4.6,4.6,85,0.00,OVC,FEW,0.00,0.0,WeatherDisplay:10.37,2013-03-10 08:21:00,
2013-03-10 09:26:00,57.8,53.3,29.76,WSW,252,3.5,3.5,85,0.00,OVC,FEW,0.00,0.0,WeatherDisplay:10.37,2013-03-10 08:26:00,
2013-03-10 09:31:00,57.6,53.4,29.76,WSW,252,3.5,3.5,86,0.00,OVC,FEW,0.00,0.0,WeatherDisplay:10.37,2013-03-10 08:31:00,
2013-03-10 09:36:00,57.1,52.6,29.75,WSW,252,0.0,0.0,85,0.00,OVC,FEW,0.00,0.0,WeatherDisplay:10.37,2013-03-10 08:36:00,
2013-03-10 09:41:00,56.8,52.7,29.75,WSW,252,0.0,0.0,86,0.00,OVC,FEW,0.00,0.0,WeatherDisplay:10.37,2013-03-10 08:41:00,
2013-03-10 09:46:00,57.0,53.2,29.75,WSW,252,3.5,3.5,87,0.00,OVC,FEW,0.00,0.0,WeatherDisplay:10.37,2013-03-10 08:46:00,
2013-03-10 09:51:00,57.3,53.1,29.75,WSW,252,1.2,1.2,86,0.00,OVC,FEW,0.00,0.0,WeatherDisplay:10.37,2013-03-10 08:51:00,
2013-03-10 09:56:00,57.9,53.4,29.75,ESE,103,5.8,5.8,85,0.00,OVC,FEW,0.00,0.0,WeatherDisplay:10.37,2013-03-10 08:56:00,
2013-03-10 10:01:00,58.5,53.7,29.75,ESE,106,0.0,6.0,84,0.00,OVC,FEW,0.00,0.0,WeatherDisplay:10.37,2013-03-10 09:01:00,
2013-03-10 10:06:00,59.3,53.5,29.75,ENE,72,3.0,3.0,81,0.00,OVC,FEW,0.00,0.0,WeatherDisplay:10.37,2013-03-10 09:06:00,
2013-03-10 10:11:00,60.1,53.2,29.75,WNW,296,3.5,3.5,78,0.00,OVC,FEW,0.00,0.0,WeatherDisplay:10.37,2013-03-10 09:11:00,
2013-03-10 10:16:00,60.7,52.7,29.75,WSW,245,5.8,5.8,75,0.00,OVC,FEW,0.00,0.0,WeatherDisplay:10.37,2013-03-10 09:16:00,
2013-03-10 10:21:00,60.7,51.2,29.75,East,98,4.6,4.6,71,0.00,OVC,FEW,0.00,0.0,WeatherDisplay:10.37,2013-03-10 09:21:00,
2013-03-10 10:26:00,60.8,51.0,29.75,ESE,113,4.6,4.6,70,0.00,OVC,FEW,0.00,0.0,WeatherDisplay:10.37,2013-03-10 09:26:00,
2013-03-10 10:31:00,60.8,51.3,29.75,SSE,167,1.0,8.0,71,0.00,OVC,FEW,0.00,0.0,WeatherDisplay:10.37,2013-03-10 09:31:00,
2013-03-10 10:36:00,61.2,51.7,29.75,WSW,246,4.0,4.0,71,0.00,OVC,FEW,0.00,0.0,WeatherDisplay:10.37,2013-03-10 09:36:00,
2013-03-10 10:41:00,61.2,51.7,29.74,ESE,111,4.6,4.6,71,0.00,OVC,FEW,0.00,0.0,WeatherDisplay:10.37,2013-03-10 09:41:00,
2013-03-10 10:46:00,60.9,51.0,29.74,West,273,6.9,6.9,70,0.00,OVC,FEW,0.00,0.0,WeatherDisplay:10.37,2013-03-10 09:46:00,
2013-03-10 10:51:00,61.0,51.5,29.74,SE,132,3.5,3.5,71,0.00,OVC,FEW,0.00,0.0,WeatherDisplay:10.37,2013-03-10 09:51:00,
2013-03-10 10:56:00,60.9,51.4,29.74,SSW,202,5.8,5.8,71,0.00,OVC,FEW,0.00,0.0,WeatherDisplay:10.37,2013-03-10 09:56:00,
2013-03-10 11:01:00,60.8,51.7,29.74,WSW,250,8.1,8.1,72,0.00,OVC,FEW,0.00,0.0,WeatherDisplay:10.37,2013-03-10 10:01:00,
2013-03-10 11:06:00,61.1,52.0,29.74,East,90,6.9,6.9,72,0.00,OVC,FEW,0.00,0.0,WeatherDisplay:10.37,2013-03-10 10:06:00,
2013-03-10 11:11:00,61.4,53.0,29.73,ESE,109,4.6,4.6,74,0.00,OVC,FEW,0.00,0.0,WeatherDisplay:10.37,2013-03-10 10:11:00,
2013-03-10 11:16:00,61.2,53.2,29.73,SSE,157,2.3,2.3,75,0.00,OVC,FEW,0.00,0.0,WeatherDisplay:10.37,2013-03-10 10:16:00,
2013-03-10 11:21:00,61.1,52.7,29.73,West,264,5.8,5.8,74,0.00,OVC,FEW,0.00,0.0,WeatherDisplay:10.37,2013-03-10 10:21:00,
2013-03-10 11:26:00,61.0,52.7,29.73,SSW,213,6.9,6.9,74,0.00,OVC,FEW,0.00,0.0,WeatherDisplay:10.37,2013-03-10 10:26:00,
2013-03-10 11:31:00,61.2,52.5,29.73,WSW,244,6.0,6.0,73,0.00,OVC,FEW,0.00,0.0,WeatherDisplay:10.37,2013-03-10 10:31:00,
2013-03-10 11:36:00,60.9,51.4,29.73,ESE,117,9.2,9.2,71,0.00,OVC,FEW,0.00,0.0,WeatherDisplay:10.37,2013-03-10 10:36:00,
2013-03-10 11:41:00,60.8,51.0,29.73,SE,140,8.1,8.1,70,0.00,OVC,FEW,0.00,0.0,WeatherDisplay:10.37,2013-03-10 10:41:00,
2013-03-10 11:46:00,61.0,51.5,29.73,SSE,148,15.0,15.0,71,0.00,OVC,FEW,0.00,0.0,WeatherDisplay:10.37,2013-03-10 10:46:00,
2013-03-10 11:51:00,60.6,51.5,29.73,ESE,123,8.1,8.1,72,0.00,OVC,FEW,0.00,0.0,WeatherDisplay:10.37,2013-03-10 10:51:00,
2013-03-10 11:56:00,60.9,52.2,29.72,East,92,4.6,4.6,73,0.00,OVC,FEW,0.00,0.0,WeatherDisplay:10.37,2013-03-10 10:56:00,
2013-03-10 12:01:00,61.4,52.3,29.72,East,96,5.0,5.0,72,0.00,OVC,FEW,0.00,0.0,WeatherDisplay:10.37,2013-03-10 11:01:00,
2013-03-10 12:06:00,61.2,50.9,29.72,SSW,209,9.2,9.2,69,0.00,OVC,FEW,0.00,0.0,WeatherDisplay:10.37,2013-03-10 11:06:00,
2013-03-10 12:11:00,61.4,51.1,29.72,SE,125,4.6,4.6,69,0.00,OVC,FEW,0.00,0.0,WeatherDisplay:10.37,2013-03-10 11:11:00,
2013-03-10 12:16:00,61.5,51.6,29.72,SE,133,9.0,9.0,70,0.00,OVC,FEW,0.00,0.0,WeatherDisplay:10.37,2013-03-10 11:16:00,
2013-03-10 12:21:00,61.1,51.6,29.72,SSE,161,6.9,6.9,71,0.00,OVC,FEW,0.00,0.0,WeatherDisplay:10.37,2013-03-10 11:21:00,
2013-03-10 12:26:00,61.1,52.0,29.72,SSE,159,8.1,8.1,72,0.00,OVC,FEW,0.00,0.0,WeatherDisplay:10.37,2013-03-10 11:26:00,
2013-03-10 12:31:00,60.9,52.2,29.72,SE,131,10.4,10.4,73,0.00,OVC,FEW,0.00,0.0,WeatherDisplay:10.37,2013-03-10 11:31:00,
2013-03-10 12:36:00,60.4,52.1,29.72,SSE,156,8.1,8.1,74,0.00,OVC,FEW,0.00,0.0,WeatherDisplay:10.37,2013-03-10 11:36:00,
2013-03-10 12:41:00,60.0,51.7,29.72,SW,215,11.5,11.5,74,0.00,OVC,FEW,0.00,0.0,WeatherDisplay:10.37,2013-03-10 11:41:00,
2013-03-10 12:46:00,60.0,51.7,29.72,SE,142,8.1,8.1,74,0.00,OVC,FEW,0.00,0.0,WeatherDisplay:10.37,2013-03-10 11:46:00,
2013-03-10 12:51:00,59.9,52.3,29.72,ESE,109,11.5,11.5,76,0.00,OVC,FEW,0.00,0.0,WeatherDisplay:10.37,2013-03-10 11:51:00,
2013-03-10 12:56:00,59.2,51.6,29.71,South,172,12.0,12.0,76,0.00,OVC,FEW,0.00,0.0,WeatherDisplay:10.37,2013-03-10 11:56:00,
2013-03-10 13:01:00,58.9,52.1,29.72,ENE,70,13.8,13.8,78,0.00,OVC,FEW,0.00,0.0,WeatherDisplay:10.37,2013-03-10 12:01:00,
2013-03-10 13:06:00,58.4,51.6,29.72,ESE,119,15.0,15.0,78,0.00,OVC,FEW,0.00,0.0,WeatherDisplay:10.37,2013-03-10 12:06:00,
2013-03-10 13:11:00,58.3,51.8,29.71,SSE,167,15.0,15.0,79,0.00,OVC,FEW,0.00,0.0,WeatherDisplay:10.37,2013-03-10 12:11:00,
2013-03-10 13:16:00,58.4,51.9,29.71,East,101,11.5,11.5,79,0.00,OVC,FEW,0.00,0.0,WeatherDisplay:10.37,2013-03-10 12:16:00,
2013-03-10 13:21:00,58.6,52.1,29.71,SSE,155,11.5,11.5,79,0.00,OVC,FEW,0.00,0.0,WeatherDisplay:10.37,2013-03-10 12:21:00,
2013-03-10 13:26:00,58.6,52.1,29.70,SE,132,12.0,12.0,79,0.00,OVC,FEW,0.00,0.0,WeatherDisplay:10.37,2013-03-10 12:26:00,
2013-03-10 13:31:00,58.6,52.1,29.70,South,173,17.3,17.3,79,0.00,OVC,FEW,0.00,0.0,WeatherDisplay:10.37,2013-03-10 12:31:00,
2013-03-10 13:36:00,58.4,51.9,29.71,South,182,11.5,11.5,79,0.00,OVC,FEW,0.00,0.0,WeatherDisplay:10.37,2013-03-10 12:36:00,
2013-03-10 13:41:00,58.1,52.0,29.70,ESE,111,11.5,11.5,80,0.00,OVC,FEW,0.00,0.0,WeatherDisplay:10.37,2013-03-10 12:41:00,
2013-03-10 13:46:00,58.1,52.3,29.71,South,172,12.7,12.7,81,0.00,OVC,FEW,0.00,0.0,WeatherDisplay:10.37,2013-03-10 12:46:00,
2013-03-10 13:51:00,58.5,52.4,29.71,SSW,202,11.5,11.5,80,0.00,OVC,FEW,0.00,0.0,WeatherDisplay:10.37,2013-03-10 12:51:00,
2013-03-10 13:56:00,58.6,52.4,29.71,SE,130,13.0,13.0,80,0.00,OVC,FEW,0.00,0.0,WeatherDisplay:10.37,2013-03-10 12:56:00,
2013-03-10 14:01:00,58.7,52.5,29.70,SSE,147,13.8,13.8,80,0.00,OVC,FEW,0.00,0.0,WeatherDisplay:10.37,2013-03-10 13:01:00,
2013-03-10 14:06:00,58.8,52.6,29.71,ESE,121,9.2,9.2,80,0.00,OVC,FEW,0.00,0.0,WeatherDisplay:10.37,2013-03-10 13:06:00,
2013-03-10 14:11:00,58.6,52.4,29.71,ESE,105,9.2,9.2,80,0.00,OVC,FEW,0.00,0.0,WeatherDisplay:10.37,2013-03-10 13:11:00,
2013-03-10 14:16:00,58.1,52.0,29.71,SE,135,12.7,12.7,80,0.00,OVC,FEW,0.00,0.0,WeatherDisplay:10.37,2013-03-10 13:16:00,
2013-03-10 14:21:00,57.9,52.1,29.70,ESE,121,11.5,11.5,81,0.00,OVC,FEW,0.00,0.0,WeatherDisplay:10.37,2013-03-10 13:21:00,
2013-03-10 14:26:00,57.6,51.8,29.70,ESE,113,9.2,9.2,81,0.00,OVC,FEW,0.00,0.0,WeatherDisplay:10.37,2013-03-10 13:26:00,
2013-03-10 14:31:00,57.8,52.3,29.70,East,98,9.2,9.2,82,0.00,OVC,FEW,0.00,0.0,WeatherDisplay:10.37,2013-03-10 13:31:00,
2013-03-10 14:36:00,58.0,52.5,29.70,East,93,11.5,11.5,82,0.00,OVC,FEW,0.00,0.0,WeatherDisplay:10.37,2013-03-10 13:36:00,
2013-03-10 14:41:00,57.9,52.1,29.70,South,191,11.5,11.5,81,0.00,OVC,FEW,0.00,0.0,WeatherDisplay:10.37,2013-03-10 13:41:00,
2013-03-10 14:46:00,58.3,52.8,29.70,East,83,11.0,11.0,82,0.00,OVC,FEW,0.00,0.0,WeatherDisplay:10.37,2013-03-10 13:46:00,
2013-03-10 14:51:00,58.3,52.5,29.70,ESE,113,9.0,9.0,81,0.00,OVC,FEW,0.00,0.0,WeatherDisplay:10.37,2013-03-10 13:51:00,
2013-03-10 14:56:00,58.2,52.4,29.70,SW,223,8.1,8.1,81,0.00,OVC,FEW,0.00,0.0,WeatherDisplay:10.37,2013-03-10 13:56:00,
2013-03-10 15:01:00,58.5,52.7,29.70,SSW,200,6.9,6.9,81,0.00,OVC,FEW,0.00,0.0,WeatherDisplay:10.37,2013-03-10 14:01:00,
2013-03-10 15:06:00,58.4,52.3,29.70,SSW,206,11.5,11.5,80,0.00,OVC,FEW,0.00,0.0,WeatherDisplay:10.37,2013-03-10 14:06:00,
2013-03-10 15:11:00,58.2,52.4,29.69,SSW,205,2.3,2.3,81,0.00,OVC,FEW,0.00,0.0,WeatherDisplay:10.37,2013-03-10 14:11:00,
2013-03-10 15:16:00,58.0,52.2,29.69,SSE,150,5.0,5.0,81,0.00,OVC,FEW,0.00,0.0,WeatherDisplay:10.37,2013-03-10 14:16:00,
2013-03-10 15:21:00,57.7,51.9,29.69,SE,138,6.9,6.9,81,0.00,OVC,FEW,0.00,0.0,WeatherDisplay:10.37,2013-03-10 14:21:00,
2013-03-10 15:26:00,56.9,51.5,29.69,South,172,12.7,12.7,82,0.00,OVC,FEW,0.00,0.0,WeatherDisplay:10.37,2013-03-10 14:26:00,
2013-03-10 15:31:00,56.4,51.3,29.69,SSE,161,11.5,11.5,83,0.00,OVC,FEW,0.00,0.0,WeatherDisplay:10.37,2013-03-10 14:31:00,
2013-03-10 15:36:00,56.2,51.4,29.69,SE,140,13.8,13.8,84,0.00,OVC,FEW,0.00,0.0,WeatherDisplay:10.37,2013-03-10 14:36:00,
2013-03-10 15:41:00,56.1,51.7,29.69,SSE,153,11.5,11.5,85,0.00,OVC,FEW,0.00,0.0,WeatherDisplay:10.37,2013-03-10 14:41:00,
2013-03-10 15:46:00,56.3,51.8,29.68,East,100,12.7,12.7,85,0.00,OVC,FEW,0.00,0.0,WeatherDisplay:10.37,2013-03-10 14:46:00,
2013-03-10 15:51:00,56.0,51.6,29.68,SE,130,16.1,16.1,85,0.00,OVC,FEW,0.00,0.0,WeatherDisplay:10.37,2013-03-10 14:51:00,
2013-03-10 15:56:00,55.6,51.5,29.68,ESE,106,17.3,17.3,86,0.00,OVC,FEW,0.00,0.0,WeatherDisplay:10.37,2013-03-10 14:56:00,
2013-03-10 16:01:00,55.4,51.3,29.68,SE,134,15.0,15.0,86,0.00,OVC,FEW,0.00,0.0,WeatherDisplay:10.37,2013-03-10 15:01:00,
2013-03-10 16:06:00,55.2,51.4,29.67,SE,136,16.1,16.1,87,0.00,OVC,FEW,0.00,0.0,WeatherDisplay:10.37,2013-03-10 15:06:00,
2013-03-10 16:11:00,55.0,51.2,29.67,East,95,19.6,19.6,87,0.00,OVC,FEW,0.00,0.0,WeatherDisplay:10.37,2013-03-10 15:11:00,
2013-03-10 16:17:00,55.1,51.6,29.67,ESE,108,11.5,11.5,88,0.00,OVC,FEW,0.00,0.0,WeatherDisplay:10.37,2013-03-10 15:17:00,
2013-03-10 16:22:00,55.1,51.6,29.67,SE,134,13.8,13.8,88,0.00,OVC,FEW,0.00,0.0,WeatherDisplay:10.37,2013-03-10 15:22:00,
2013-03-10 16:27:00,54.9,51.4,29.67,SE,132,16.1,16.1,88,0.00,OVC,FEW,0.00,0.0,WeatherDisplay:10.37,2013-03-10 15:27:00,
2013-03-10 16:32:00,54.8,51.6,29.68,ESE,117,16.1,16.1,89,0.00,OVC,FEW,0.00,0.0,WeatherDisplay:10.37,2013-03-10 15:32:00,
2013-03-10 16:37:00,54.6,51.4,29.68,SE,138,13.8,13.8,89,0.00,OVC,FEW,0.00,0.0,WeatherDisplay:10.37,2013-03-10 15:37:00,
2013-03-10 16:42:00,54.4,51.2,29.68,SSE,153,15.0,15.0,89,0.00,OVC,FEW,0.00,0.0,WeatherDisplay:10.37,2013-03-10 15:42:00,
2013-03-10 16:47:00,54.3,51.1,29.68,SE,130,10.4,10.4,89,0.00,OVC,FEW,0.00,0.0,WeatherDisplay:10.37,2013-03-10 15:47:00,
2013-03-10 16:52:00,54.2,51.0,29.69,South,191,11.5,11.5,89,0.00,OVC,FEW,0.00,0.0,WeatherDisplay:10.37,2013-03-10 15:52:00,
2013-03-10 16:57:00,54.2,51.0,29.69,South,176,10.4,10.4,89,0.00,OVC,FEW,0.00,0.0,WeatherDisplay:10.37,2013-03-10 15:57:00,
2013-03-10 17:02:00,54.1,51.2,29.69,SE,137,8.1,8.1,90,0.01,RA,FEW,0.01,0.0,WeatherDisplay:10.37,2013-03-10 16:02:00,
2013-03-10 17:07:00,54.0,51.1,29.68,East,79,9.2,9.2,90,0.02,RA,FEW,0.02,0.0,WeatherDisplay:10.37,2013-03-10 16:07:00,
2013-03-10 17:12:00,53.8,50.9,29.68,SSW,211,9.2,9.2,90,0.03,RA,FEW,0.03,0.0,WeatherDisplay:10.37,2013-03-10 16:12:00,
2013-03-10 17:17:00,53.7,50.8,29.68,WSW,253,10.4,10.4,90,0.04,RA,FEW,0.05,0.0,WeatherDisplay:10.37,2013-03-10 16:17:00,
2013-03-10 17:22:00,53.6,51.0,29.68,ENE,76,11.5,11.5,91,0.05,RA,FEW,0.05,0.0,WeatherDisplay:10.37,2013-03-10 16:22:00,
2013-03-10 17:27:00,53.4,50.8,29.67,South,173,12.7,12.7,91,0.06,RA,FEW,0.06,0.0,WeatherDisplay:10.37,2013-03-10 16:27:00,
2013-03-10 17:32:00,53.4,50.8,29.67,ESE,117,11.5,11.5,91,0.06,RA,FEW,0.06,0.0,WeatherDisplay:10.37,2013-03-10 16:32:00,
2013-03-10 17:37:00,53.3,50.7,29.67,SSE,161,11.5,11.5,91,0.06,RA,FEW,0.06,0.0,WeatherDisplay:10.37,2013-03-10 16:37:00,
2013-03-10 17:42:00,53.4,50.8,29.66,ESE,111,9.2,9.2,91,0.06,RA,FEW,0.06,0.0,WeatherDisplay:10.37,2013-03-10 16:42:00,
2013-03-10 17:47:00,53.4,51.1,29.66,SW,234,11.5,11.5,92,0.06,RA,FEW,0.06,0.0,WeatherDisplay:10.37,2013-03-10 16:47:00,
2013-03-10 17:52:00,53.4,51.1,29.66,South,171,15.0,15.0,92,0.06,OVC,FEW,0.06,0.0,WeatherDisplay:10.37,2013-03-10 16:52:00,
2013-03-10 17:57:00,53.5,51.2,29.66,South,181,8.0,8.0,92,0.06,OVC,FEW,0.06,0.0,WeatherDisplay:10.37,2013-03-10 16:57:00,
2013-03-10 18:02:00,53.6,51.3,29.67,SSE,167,11.5,11.5,92,0.06,OVC,FEW,0.06,0.0,WeatherDisplay:10.37,2013-03-10 17:02:00,
2013-03-10 18:07:00,53.5,51.2,29.67,SE,130,5.8,5.8,92,0.06,OVC,FEW,0.06,0.0,WeatherDisplay:10.37,2013-03-10 17:07:00,
2013-03-10 18:12:00,53.4,51.1,29.67,SSW,204,9.2,9.2,92,0.05,OVC,FEW,0.06,0.0,WeatherDisplay:10.37,2013-03-10 17:12:00,
2013-03-10 18:17:00,53.5,51.5,29.67,SSE,148,6.9,6.9,93,0.02,OVC,FEW,0.06,0.0,WeatherDisplay:10.37,2013-03-10 17:17:00,
2013-03-10 18:22:00,53.6,51.6,29.68,SSE,153,11.5,11.5,93,0.02,OVC,FEW,0.06,0.0,WeatherDisplay:10.37,2013-03-10 17:22:00,
2013-03-10 18:27:00,53.5,51.5,29.67,SE,138,11.5,11.5,93,0.02,OVC,FEW,0.06,0.0,WeatherDisplay:10.37,2013-03-10 17:27:00,
2013-03-10 18:32:00,53.5,51.5,29.67,SE,136,7.0,7.0,93,0.01,OVC,FEW,0.06,0.0,WeatherDisplay:10.37,2013-03-10 17:32:00,
2013-03-10 18:37:00,53.3,51.3,29.66,ESE,107,11.5,11.5,93,0.01,CLR,FEW,0.06,0.0,WeatherDisplay:10.37,2013-03-10 17:37:00,
2013-03-10 18:42:00,53.4,51.4,29.66,South,185,8.1,8.1,93,0.00,CLR,FEW,0.06,0.0,WeatherDisplay:10.37,2013-03-10 17:42:00,
2013-03-10 18:47:00,53.5,51.5,29.66,SE,132,8.1,8.1,93,0.00,CLR,FEW,0.06,0.0,WeatherDisplay:10.37,2013-03-10 17:47:00,
2013-03-10 18:52:00,53.5,51.5,29.67,SSE,162,11.5,11.5,93,0.01,RA,FEW,0.07,0.0,WeatherDisplay:10.37,2013-03-10 17:52:00,
2013-03-10 18:57:00,53.5,51.5,29.67,ENE,74,5.8,5.8,93,0.01,RA,FEW,0.07,0.0,WeatherDisplay:10.37,2013-03-10 17:57:00,
2013-03-10 19:02:00,53.6,51.6,29.67,SW,225,6.9,6.9,93,0.01,,FEW,0.07,0.0,WeatherDisplay:10.37,2013-03-10 18:02:00,
2013-03-10 19:07:00,53.6,51.6,29.67,NE,53,3.5,3.5,93,0.01,CLR,FEW,0.07,0.0,WeatherDisplay:10.37,2013-03-10 18:07:00,
2013-03-10 19:12:00,53.6,51.9,29.67,SW,223,8.1,8.1,94,0.01,CLR,FEW,0.07,0.0,WeatherDisplay:10.37,2013-03-10 18:12:00,
2013-03-10 19:17:00,53.7,52.0,29.66,NW,320,3.5,3.5,94,0.01,CLR,FEW,0.07,0.0,WeatherDisplay:10.37,2013-03-10 18:17:00,
2013-03-10 19:22:00,53.9,52.2,29.67,SW,235,10.4,10.4,94,0.01,CLR,FEW,0.07,0.0,WeatherDisplay:10.37,2013-03-10 18:22:00,
2013-03-10 19:27:00,54.0,52.3,29.67,SSW,210,10.4,10.4,94,0.01,CLR,FEW,0.07,0.0,WeatherDisplay:10.37,2013-03-10 18:27:00,
2013-03-10 19:32:00,54.2,52.5,29.66,North,360,5.8,5.8,94,0.01,CLR,FEW,0.07,0.0,WeatherDisplay:10.37,2013-03-10 18:32:00,
2013-03-10 19:37:00,54.2,52.5,29.67,South,171,5.8,5.8,94,0.01,CLR,FEW,0.07,0.0,WeatherDisplay:10.37,2013-03-10 18:37:00,
2013-03-10 19:42:00,54.3,52.6,29.67,ESE,113,6.9,6.9,94,0.01,CLR,FEW,0.07,0.0,WeatherDisplay:10.37,2013-03-10 18:42:00,
2013-03-10 19:47:00,54.2,52.5,29.67,SW,229,3.5,3.5,94,0.01,CLR,FEW,0.07,0.0,WeatherDisplay:10.37,2013-03-10 18:47:00,
2013-03-10 19:52:00,54.1,52.4,29.67,SW,229,13.8,13.8,94,0.01,CLR,FEW,0.07,0.0,WeatherDisplay:10.37,2013-03-10 18:52:00,
2013-03-10 19:57:00,54.2,52.5,29.67,ENE,76,6.9,6.9,94,0.00,CLR,FEW,0.07,0.0,WeatherDisplay:10.37,2013-03-10 18:57:00,
2013-03-10 20:02:00,54.3,52.6,29.67,NNE,19,3.5,3.5,94,0.00,CLR,FEW,0.07,0.0,WeatherDisplay:10.37,2013-03-10 19:02:00,
2013-03-10 20:07:00,54.3,52.6,29.67,East,101,6.9,6.9,94,0.00,CLR,FEW,0.07,0.0,WeatherDisplay:10.37,2013-03-10 19:07:00,
2013-03-10 20:12:00,54.2,52.5,29.67,South,170,8.1,8.1,94,0.00,CLR,FEW,0.07,0.0,WeatherDisplay:10.37,2013-03-10 19:12:00,
2013-03-10 20:17:00,54.1,52.4,29.67,NE,49,6.9,6.9,94,0.00,CLR,FEW,0.07,0.0,WeatherDisplay:10.37,2013-03-10 19:17:00,
2013-03-10 20:22:00,54.1,52.4,29.67,South,177,6.9,6.9,94,0.00,CLR,FEW,0.07,0.0,WeatherDisplay:10.37,2013-03-10 19:22:00,
2013-03-10 20:27:00,53.9,52.2,29.67,East,88,10.4,10.4,94,0.00,CLR,FEW,0.07,0.0,WeatherDisplay:10.37,2013-03-10 19:27:00,
2013-03-10 20:32:00,53.8,52.1,29.67,NNW,327,18.4,18.4,94,0.00,CLR,FEW,0.07,0.0,WeatherDisplay:10.37,2013-03-10 19:32:00,
2013-03-10 20:37:00,53.8,52.1,29.67,WSW,242,11.5,11.5,94,0.00,CLR,FEW,0.07,0.0,WeatherDisplay:10.37,2013-03-10 19:37:00,
2013-03-10 20:42:00,53.9,52.2,29.67,NW,318,12.7,12.7,94,0.00,CLR,FEW,0.07,0.0,WeatherDisplay:10.37,2013-03-10 19:42:00,
2013-03-10 20:47:00,54.0,52.3,29.67,NW,313,18.4,18.4,94,0.00,CLR,FEW,0.07,0.0,WeatherDisplay:10.37,2013-03-10 19:47:00,
2013-03-10 20:52:00,54.1,52.4,29.67,SW,229,9.2,9.2,94,0.00,CLR,FEW,0.07,0.0,WeatherDisplay:10.37,2013-03-10 19:52:00,
2013-03-10 20:57:00,54.1,52.4,29.66,SW,234,12.7,12.7,94,0.00,CLR,FEW,0.07,0.0,WeatherDisplay:10.37,2013-03-10 19:57:00,
2013-03-10 21:03:00,54.2,52.5,29.66,WSW,245,13.8,13.8,94,0.00,CLR,FEW,0.07,0.0,WeatherDisplay:10.37,2013-03-10 20:03:00,
2013-03-10 21:08:00,54.3,52.6,29.66,SW,215,12.7,12.7,94,0.00,CLR,FEW,0.07,0.0,WeatherDisplay:10.37,2013-03-10 20:08:00,
2013-03-10 21:13:00,54.4,52.7,29.66,SW,232,12.0,12.0,94,0.00,CLR,FEW,0.07,0.0,WeatherDisplay:10.37,2013-03-10 20:13:00,
2013-03-10 21:18:00,54.4,52.7,29.66,WSW,253,12.7,12.7,94,0.00,CLR,FEW,0.07,0.0,WeatherDisplay:10.37,2013-03-10 20:18:00,
2013-03-10 21:23:00,54.4,52.7,29.66,SW,218,19.6,19.6,94,0.00,CLR,FEW,0.07,0.0,WeatherDisplay:10.37,2013-03-10 20:23:00,
2013-03-10 21:28:00,54.4,52.7,29.66,WSW,241,13.8,13.8,94,0.00,CLR,FEW,0.07,0.0,WeatherDisplay:10.37,2013-03-10 20:28:00,
2013-03-10 21:33:00,54.4,52.7,29.66,SSW,196,12.7,12.7,94,0.00,CLR,FEW,0.07,0.0,WeatherDisplay:10.37,2013-03-10 20:33:00,
2013-03-10 21:38:00,54.4,52.7,29.66,WSW,240,10.4,10.4,94,0.00,CLR,FEW,0.07,0.0,WeatherDisplay:10.37,2013-03-10 20:38:00,
2013-03-10 21:43:00,54.4,52.7,29.66,SSW,207,15.0,15.0,94,0.00,CLR,FEW,0.07,0.0,WeatherDisplay:10.37,2013-03-10 20:43:00,
2013-03-10 21:48:00,54.3,52.6,29.66,WSW,237,16.1,16.1,94,0.00,CLR,FEW,0.07,0.0,WeatherDisplay:10.37,2013-03-10 20:48:00,
2013-03-10 21:53:00,54.4,52.7,29.66,West,266,11.5,11.5,94,0.00,CLR,FEW,0.07,0.0,WeatherDisplay:10.37,2013-03-10 20:53:00,
2013-03-10 21:58:00,54.4,52.7,29.66,SW,231,10.4,10.4,94,0.00,CLR,FEW,0.07,0.0,WeatherDisplay:10.37,2013-03-10 20:58:00,
2013-03-10 22:03:00,54.4,52.7,29.66,West,259,11.5,11.5,94,0.00,CLR,FEW,0.07,0.0,WeatherDisplay:10.37,2013-03-10 21:03:00,
2013-03-10 22:08:00,54.3,52.6,29.66,SW,234,11.5,11.5,94,0.00,CLR,FEW,0.07,0.0,WeatherDisplay:10.37,2013-03-10 21:08:00,
2013-03-10 22:13:00,54.4,52.7,29.66,SSW,205,9.2,9.2,94,0.00,CLR,FEW,0.07,0.0,WeatherDisplay:10.37,2013-03-10 21:13:00,
2013-03-10 22:18:00,54.4,52.7,29.66,WSW,247,13.8,13.8,94,0.00,CLR,FEW,0.07,0.0,WeatherDisplay:10.37,2013-03-10 21:18:00,
2013-03-10 22:23:00,54.4,52.7,29.66,WSW,238,13.8,13.8,94,0.00,CLR,FEW,0.07,0.0,WeatherDisplay:10.37,2013-03-10 21:23:00,
2013-03-10 22:28:00,54.5,52.8,29.66,WSW,254,13.8,13.8,94,0.00,CLR,FEW,0.07,0.0,WeatherDisplay:10.37,2013-03-10 21:28:00,
2013-03-10 22:33:00,54.5,52.8,29.66,SW,234,15.0,15.0,94,0.00,CLR,FEW,0.07,0.0,WeatherDisplay:10.37,2013-03-10 21:33:00,
2013-03-10 22:38:00,54.5,52.5,29.66,West,266,16.1,16.1,93,0.00,CLR,FEW,0.07,0.0,WeatherDisplay:10.37,2013-03-10 21:38:00,
2013-03-10 22:43:00,54.5,52.5,29.67,SSW,193,12.7,12.7,93,0.00,CLR,FEW,0.07,0.0,WeatherDisplay:10.37,2013-03-10 21:43:00,
2013-03-10 22:48:00,54.4,52.4,29.66,WSW,250,12.0,12.0,93,0.00,CLR,FEW,0.07,0.0,WeatherDisplay:10.37,2013-03-10 21:48:00,
2013-03-10 22:53:00,54.3,52.3,29.67,SW,227,10.4,10.4,93,0.00,CLR,FEW,0.07,0.0,WeatherDisplay:10.37,2013-03-10 21:53:00,
2013-03-10 22:58:00,54.4,52.4,29.66,SW,223,17.3,17.3,93,0.00,CLR,FEW,0.07,0.0,WeatherDisplay:10.37,2013-03-10 21:58:00,
2013-03-10 23:03:00,54.3,52.3,29.66,SW,228,13.8,13.8,93,0.00,CLR,FEW,0.07,0.0,WeatherDisplay:10.37,2013-03-10 22:03:00,
2013-03-10 23:08:00,54.3,52.3,29.66,West,263,10.4,10.4,93,0.00,CLR,FEW,0.07,0.0,WeatherDisplay:10.37,2013-03-10 22:08:00,
2013-03-10 23:13:00,54.3,52.3,29.66,South,186,9.2,9.2,93,0.00,CLR,FEW,0.07,0.0,WeatherDisplay:10.37,2013-03-10 22:13:00,
2013-03-10 23:19:00,54.2,52.2,29.66,West,270,11.5,11.5,93,0.00,CLR,FEW,0.07,0.0,WeatherDisplay:10.37,2013-03-10 22:19:00,
2013-03-10 23:24:00,54.2,52.2,29.66,West,261,11.5,11.5,93,0.00,CLR,FEW,0.07,0.0,WeatherDisplay:10.37,2013-03-10 22:24:00,
2013-03-10 23:29:00,54.2,52.2,29.66,WSW,248,17.3,17.3,93,0.00,CLR,FEW,0.07,0.0,WeatherDisplay:10.37,2013-03-10 22:29:00,
2013-03-10 23:34:00,54.2,52.2,29.66,SW,234,12.7,12.7,93,0.00,CLR,FEW,0.07,0.0,WeatherDisplay:10.37,2013-03-10 22:34:00,
2013-03-10 23:39:00,54.1,52.1,29.66,West,264,11.5,11.5,93,0.00,CLR,FEW,0.07,0.0,WeatherDisplay:10.37,2013-03-10 22:39:00,
2013-03-10 23:44:00,54.0,52.0,29.66,West,270,11.5,11.5,93,0.00,CLR,FEW,0.07,0.0,WeatherDisplay:10.37,2013-03-10 22:44:00,
2013-03-10 23:49:00,54.0,52.0,29.66,West,261,11.5,11.5,93,0.00,CLR,FEW,0.07,0.0,WeatherDisplay:10.37,2013-03-10 22:49:00,
2013-03-10 23:54:00,53.9,51.9,29.66,West,269,12.7,12.7,93,0.00,CLR,FEW,0.07,0.0,WeatherDisplay:10.37,2013-03-10 22:54:00,
2013-03-10 23:59:00,54.1,52.1,29.66,West,269,11.5,11.5,93,0.00,CLR,FEW,0.07,0.0,WeatherDisplay:10.37,2013-03-10 22:59:00,